Time;durP1;ratioP1;P1;durP2;ratioP2;P2;SDS_P1;SDS_P2;PMS_P1;PMS_P2;Temp;Humidity;BMP_temperature;BMP_pressure;BME280_temperature;BME280_humidity;BME280_pressure;Samples;Min_cycle;Max_cycle;Signal;HPM_P1;HPM_P2
2024/02/01 00:01:14;;;;;;;4.40;1.75;;;;;;;15.44;45.32;102327.84;4999608;28;20101;-61
2024/02/01 00:03:40;;;;;;;13.15;2.20;;;;;;;15.46;46.23;102317.84;5016163;28;20045;-61
2024/02/01 00:06:05;;;;;;;5.90;1.98;;;;;;;15.48;46.58;102315.88;5015480;28;20030;-61
2024/02/01 00:08:31;;;;;;;3.88;1.92;;;;;;;15.47;45.91;102314.13;5016850;28;20026;-62
2024/02/01 00:10:56;;;;;;;5.78;1.75;;;;;;;15.51;46.53;102322.84;4999189;28;20033;-61
2024/02/01 00:13:22;;;;;;;3.95;2.13;;;;;;;15.48;45.63;102321.25;5016596;28;20640;-61
2024/02/01 00:15:47;;;;;;;3.10;1.85;;;;;;;15.52;45.06;102322.72;5015361;28;20554;-61
2024/02/01 00:18:13;;;;;;;5.13;2.08;;;;;;;15.51;45.40;102312.91;5015091;28;20095;-62
2024/02/01 00:20:38;;;;;;;7.35;2.42;;;;;;;15.53;46.02;102321.75;5015408;28;20030;-62
2024/02/01 00:23:04;;;;;;;6.97;2.38;;;;;;;15.54;46.77;102315.38;5015572;28;20037;-62
2024/02/01 00:25:30;;;;;;;4.20;1.80;;;;;;;15.53;45.82;102316.34;5016535;28;20026;-61
2024/02/01 00:27:56;;;;;;;6.40;2.42;;;;;;;15.57;45.82;102311.56;4998302;28;20037;-61
2024/02/01 00:30:21;;;;;;;5.13;1.83;;;;;;;15.57;46.86;102309.72;5015069;28;20030;-61
2024/02/01 00:32:47;;;;;;;5.00;2.25;;;;;;;15.57;46.75;102304.31;5016319;28;20535;-61
2024/02/01 00:35:12;;;;;;;7.57;2.25;;;;;;;15.58;46.68;102308.72;5016684;28;20030;-61
2024/02/01 00:37:38;;;;;;;4.43;1.95;;;;;;;15.53;46.78;102316.34;5014883;28;20034;-62
2024/02/01 00:40:04;;;;;;;6.63;2.60;;;;;;;15.53;46.99;102310.94;5014898;28;20026;-61
2024/02/01 00:42:31;;;;;;;11.90;2.58;;;;;;;15.52;46.27;102297.56;5016111;28;20030;-62
2024/02/01 00:44:56;;;;;;;5.60;1.95;;;;;;;15.53;46.80;102304.69;5016122;28;20485;-61
2024/02/01 00:47:21;;;;;;;4.57;2.22;;;;;;;15.48;46.28;102296.97;5014996;28;20061;-61
2024/02/01 00:49:47;;;;;;;4.53;2.22;;;;;;;15.45;47.02;102302.56;5014798;28;20045;-61
2024/02/01 00:52:12;;;;;;;8.43;2.35;;;;;;;15.42;46.60;102294.72;5015878;28;20030;-61
2024/02/01 00:54:37;;;;;;;10.85;2.53;;;;;;;15.39;46.62;102296.81;5015941;28;20501;-62
2024/02/01 00:57:04;;;;;;;8.55;2.10;;;;;;;15.37;47.18;102305.03;5015703;28;20445;-62
2024/02/01 00:59:29;;;;;;;4.40;2.45;;;;;;;15.38;47.29;102305.91;5012539;28;20489;-62
2024/02/01 01:01:54;;;;;;;6.25;2.47;;;;;;;15.36;46.86;102303.31;4990417;28;20041;-62
2024/02/01 01:04:20;;;;;;;4.88;2.42;;;;;;;15.33;47.52;102303.56;4995014;28;20394;-62
2024/02/01 01:06:45;;;;;;;7.78;3.13;;;;;;;15.27;48.20;102295.94;4994846;28;20022;-61
2024/02/01 01:09:11;;;;;;;5.88;2.63;;;;;;;15.24;47.26;102300.75;4978539;28;20031;-61
2024/02/01 01:11:37;;;;;;;5.35;2.25;;;;;;;15.20;47.89;102297.44;4994593;28;20501;-61
2024/02/01 01:14:02;;;;;;;8.02;2.92;;;;;;;15.14;48.85;102295.22;4994869;28;20031;-61
2024/02/01 01:16:28;;;;;;;6.97;2.20;;;;;;;15.14;48.50;102297.91;4994248;28;20053;-61
2024/02/01 01:18:53;;;;;;;9.57;2.72;;;;;;;15.10;48.05;102288.38;4994576;28;20037;-61
2024/02/01 01:21:19;;;;;;;5.18;2.85;;;;;;;15.08;48.39;102293.00;4995900;28;20035;-61
2024/02/01 01:23:44;;;;;;;8.90;2.75;;;;;;;15.04;48.69;102281.63;4995961;28;20035;-61
2024/02/01 01:26:09;;;;;;;7.15;3.15;;;;;;;15.04;48.10;102281.63;5011142;28;20037;-62
2024/02/01 01:28:35;;;;;;;5.50;3.08;;;;;;;15.02;48.81;102280.00;4995822;28;20053;-61
2024/02/01 01:31:00;;;;;;;4.95;2.70;;;;;;;15.00;48.59;102284.66;4974679;28;20409;-61
2024/02/01 01:33:25;;;;;;;13.30;3.72;;;;;;;14.99;49.31;102277.56;4976183;28;20035;-61
2024/02/01 01:35:51;;;;;;;11.35;3.97;;;;;;;14.98;48.81;102286.63;4987717;28;20041;-61
2024/02/01 01:38:16;;;;;;;5.78;3.08;;;;;;;14.96;48.55;102289.44;4995805;28;20034;-61
2024/02/01 01:40:41;;;;;;;3.85;3.13;;;;;;;14.98;49.28;102286.63;4994353;28;20415;-63
2024/02/01 01:43:07;;;;;;;13.45;2.67;;;;;;;14.95;49.76;102281.47;4994256;28;20077;-64
2024/02/01 01:45:32;;;;;;;7.90;3.30;;;;;;;14.97;49.58;102284.91;4994514;28;20030;-65
2024/02/01 01:47:58;;;;;;;5.30;3.28;;;;;;;14.98;48.95;102292.03;4994708;28;20046;-66
2024/02/01 01:50:24;;;;;;;7.80;3.13;;;;;;;14.93;50.50;102299.63;4994585;28;20038;-66
2024/02/01 01:52:50;;;;;;;9.15;3.13;;;;;;;14.87;49.04;102295.59;5007964;28;20040;-66
2024/02/01 01:55:16;;;;;;;6.53;3.03;;;;;;;14.88;49.19;102291.88;4997485;28;20037;-65
2024/02/01 01:57:41;;;;;;;6.05;2.92;;;;;;;14.84;49.72;102292.25;4997663;28;20030;-66
2024/02/01 02:00:08;;;;;;;9.88;3.05;;;;;;;14.80;49.69;102275.44;5014218;28;20030;-65
2024/02/01 02:02:34;;;;;;;10.65;3.30;;;;;;;14.78;50.79;102272.03;5013844;28;20030;-66
2024/02/01 02:05:01;;;;;;;6.32;3.13;;;;;;;14.75;49.65;102280.34;4997495;28;20033;-66
2024/02/01 02:07:27;;;;;;;6.60;3.05;;;;;;;14.73;49.78;102265.28;5015144;28;20041;-66
2024/02/01 02:09:52;;;;;;;7.68;3.95;;;;;;;14.74;50.57;102272.41;5013446;28;20041;-65
2024/02/01 02:12:18;;;;;;;9.02;2.88;;;;;;;14.72;51.04;102268.94;5014879;28;20420;-66
2024/02/01 02:14:56;;;;;;;8.80;3.38;;;;;;;14.72;49.84;102274.34;5014671;28;20030;-65
2024/02/01 02:17:21;;;;;;;5.07;3.03;;;;;;;14.72;49.97;102290.53;4996092;28;20053;-65
2024/02/01 02:19:47;;;;;;;8.50;3.97;;;;;;;14.72;50.08;102285.13;5014822;28;20034;-64
2024/02/01 02:22:12;;;;;;;6.32;3.55;;;;;;;14.72;50.15;102286.00;5013089;28;20034;-64
2024/02/01 02:24:37;;;;;;;5.85;3.45;;;;;;;14.76;51.67;102287.47;5013456;28;20048;-64
2024/02/01 02:27:04;;;;;;;7.10;2.97;;;;;;;14.79;51.47;102280.97;5013328;28;20108;-65
2024/02/01 02:29:30;;;;;;;10.50;3.67;;;;;;;14.82;51.38;102288.84;5014595;28;20049;-65
2024/02/01 02:31:55;;;;;;;9.25;3.30;;;;;;;14.80;51.37;102282.69;5014522;28;20057;-65
2024/02/01 02:34:20;;;;;;;11.55;3.75;;;;;;;14.80;50.77;102282.69;5013133;28;20057;-66
2024/02/01 02:36:46;;;;;;;5.60;3.25;;;;;;;14.84;50.89;102290.44;5012961;28;20080;-66
2024/02/01 02:39:12;;;;;;;4.32;2.75;;;;;;;14.83;51.09;102283.31;4996880;28;20465;-67
2024/02/01 02:41:38;;;;;;;10.00;4.07;;;;;;;14.82;51.34;102291.53;4996626;28;20501;-67
2024/02/01 02:44:06;;;;;;;6.75;3.42;;;;;;;14.83;51.47;102287.84;5013136;28;20038;-66
2024/02/01 02:46:32;;;;;;;9.30;3.63;;;;;;;14.85;51.88;102294.00;4997014;28;20109;-66
2024/02/01 02:48:57;;;;;;;7.18;3.78;;;;;;;14.84;51.95;102289.56;4996438;28;20493;-66
2024/02/01 02:51:23;;;;;;;8.27;4.05;;;;;;;14.84;52.06;102294.97;5014647;28;20058;-67
2024/02/01 02:53:48;;;;;;;11.10;3.22;;;;;;;14.81;51.27;102289.81;5013525;28;20497;-66
2024/02/01 02:56:14;;;;;;;6.45;3.28;;;;;;;14.86;51.19;102303.78;4996359;28;20034;-65
2024/02/01 02:58:39;;;;;;;5.25;3.15;;;;;;;14.82;52.21;102292.41;4996585;28;20037;-65
2024/02/01 03:01:08;;;;;;;9.10;3.42;;;;;;;14.87;51.04;102300.13;5012749;28;20058;-64
2024/02/01 03:03:40;;;;;;;10.68;3.35;;;;;;;14.84;51.25;102294.97;5012831;28;20034;-64
2024/02/01 03:06:07;;;;;;;7.90;2.77;;;;;;;14.86;52.18;102293.00;5009041;28;20121;-63
2024/02/01 03:08:32;;;;;;;3.95;2.95;;;;;;;14.90;51.97;102306.16;5013993;28;20271;-63
2024/02/01 03:10:57;;;;;;;5.53;3.05;;;;;;;14.94;51.02;102312.13;5012386;28;20034;-65
2024/02/01 03:13:23;;;;;;;4.05;2.42;;;;;;;14.93;51.88;102310.44;4996010;28;20465;-64
2024/02/01 03:15:48;;;;;;;4.95;3.10;;;;;;;14.95;51.57;102308.47;5013775;28;20034;-65
2024/02/01 03:18:13;;;;;;;4.97;2.83;;;;;;;14.96;52.57;102299.41;4972122;28;20069;-65
2024/02/01 03:20:39;;;;;;;5.78;2.60;;;;;;;14.98;51.51;102302.81;5011932;28;20057;-63
2024/02/01 03:23:05;;;;;;;4.78;2.80;;;;;;;14.96;51.36;102305.63;5012078;28;20038;-63
2024/02/01 03:25:32;;;;;;;6.10;3.35;;;;;;;14.99;52.18;102305.38;5013459;28;20040;-63
2024/02/01 03:28:01;;;;;;;3.97;2.50;;;;;;;15.00;52.58;102312.50;5012507;28;20052;-66
2024/02/01 03:30:38;;;;;;;5.38;3.17;;;;;;;15.02;51.46;102304.28;4995689;28;20452;-63
2024/02/01 03:33:04;;;;;;;5.10;2.33;;;;;;;15.02;51.61;102299.75;5013368;28;20026;-63
2024/02/01 03:35:32;;;;;;;4.45;2.45;;;;;;;15.12;51.55;102314.25;5012274;28;20029;-63
2024/02/01 03:37:59;;;;;;;8.07;2.47;;;;;;;15.14;52.16;102298.78;5013965;28;20044;-63
2024/02/01 03:40:25;;;;;;;5.50;2.85;;;;;;;15.16;51.86;102309.44;5011429;28;20040;-63
2024/02/01 03:42:50;;;;;;;4.53;2.08;;;;;;;15.18;52.26;102310.22;5012519;28;20037;-63
2024/02/01 03:45:15;;;;;;;3.50;2.35;;;;;;;15.21;51.94;102309.97;4995893;28;20026;-63
2024/02/01 03:47:41;;;;;;;5.63;2.50;;;;;;;15.24;51.96;102308.84;4990277;28;20085;-63
2024/02/01 03:50:10;;;;;;;4.63;2.10;;;;;;;15.27;51.41;102309.44;5008743;28;20031;-63
2024/02/01 03:52:37;;;;;;;4.18;2.55;;;;;;;15.27;52.40;102312.16;4993646;28;20038;-63
2024/02/01 03:55:04;;;;;;;5.65;2.50;;;;;;;15.27;52.53;102306.75;4992462;28;20026;-62
2024/02/01 03:57:29;;;;;;;3.00;2.33;;;;;;;15.30;52.97;102303.81;4992233;28;20030;-62
2024/02/01 03:59:54;;;;;;;4.43;2.25;;;;;;;15.35;51.95;102306.16;4992400;28;20030;-62
2024/02/01 04:02:21;;;;;;;3.60;2.17;;;;;;;15.37;52.64;102323.06;4992043;28;20039;-62
2024/02/01 04:04:47;;;;;;;5.57;2.15;;;;;;;15.38;52.83;102322.94;4994396;28;20044;-62
2024/02/01 04:07:16;;;;;;;2.63;2.13;;;;;;;15.43;51.77;102320.75;4992613;28;20117;-62
2024/02/01 04:09:45;;;;;;;3.88;2.15;;;;;;;15.46;52.22;102325.03;4987187;28;20155;-62
2024/02/01 04:12:11;;;;;;;4.70;2.08;;;;;;;15.39;51.96;102321.09;4989015;28;20035;-62
2024/02/01 04:14:36;;;;;;;4.38;2.40;;;;;;;15.42;52.94;102335.22;4991898;28;20023;-61
2024/02/01 04:17:01;;;;;;;4.78;2.38;;;;;;;15.45;52.85;102344.91;4985629;28;20450;-62
2024/02/01 04:19:27;;;;;;;2.85;1.98;;;;;;;15.46;52.15;102341.25;4994581;28;20037;-62
2024/02/01 04:21:52;;;;;;;5.72;2.47;;;;;;;15.47;52.67;102354.66;4991876;28;20030;-62
2024/02/01 04:24:17;;;;;;;4.22;2.40;;;;;;;15.47;51.88;102354.66;5008158;28;20034;-62
2024/02/01 04:26:43;;;;;;;3.80;2.78;;;;;;;15.50;52.40;102359.81;5008085;28;20053;-62
2024/02/01 04:29:11;;;;;;;2.95;2.05;;;;;;;15.54;52.00;102372.09;4991783;28;20034;-62
2024/02/01 04:31:37;;;;;;;3.08;2.15;;;;;;;15.56;52.66;102369.25;4972770;28;20039;-62
2024/02/01 04:34:02;;;;;;;3.53;2.40;;;;;;;15.58;51.90;102365.44;4988516;28;20034;-62
2024/02/01 04:36:28;;;;;;;3.70;2.70;;;;;;;15.58;52.69;102373.53;4995243;28;20026;-61
2024/02/01 04:38:54;;;;;;;4.03;2.42;;;;;;;15.63;52.26;102376.72;4991783;28;20084;-62
2024/02/01 04:41:19;;;;;;;4.75;3.38;;;;;;;15.63;52.15;102382.13;4987466;28;20042;-62
2024/02/01 04:43:45;;;;;;;7.25;2.80;;;;;;;15.66;52.10;102383.75;4985943;28;20445;-62
2024/02/01 04:46:10;;;;;;;3.00;2.70;;;;;;;15.69;52.73;102387.03;4983030;28;20034;-62
2024/02/01 04:48:36;;;;;;;5.60;2.70;;;;;;;15.70;52.69;102393.31;4995124;28;20534;-62
2024/02/01 04:51:01;;;;;;;5.88;3.00;;;;;;;15.73;51.50;102393.06;4995175;28;20082;-62
2024/02/01 04:53:27;;;;;;;4.70;3.28;;;;;;;15.73;52.72;102396.63;4996496;28;20166;-62
2024/02/01 04:55:53;;;;;;;6.93;2.38;;;;;;;15.74;51.79;102400.19;4996389;28;20041;-62
2024/02/01 04:58:19;;;;;;;7.70;3.85;;;;;;;15.76;52.48;102406.34;4995009;28;20035;-62
2024/02/01 05:00:44;;;;;;;4.95;2.92;;;;;;;15.80;53.40;102406.94;4994874;28;20033;-62
2024/02/01 05:03:09;;;;;;;7.70;3.60;;;;;;;15.80;52.71;102405.09;4994816;28;20405;-62
2024/02/01 05:05:36;;;;;;;5.25;2.97;;;;;;;15.82;52.54;102413.94;4995071;28;20026;-62
2024/02/01 05:08:01;;;;;;;6.45;3.83;;;;;;;15.82;52.81;102407.69;5011329;28;20041;-62
2024/02/01 05:10:27;;;;;;;4.13;3.20;;;;;;;15.84;52.86;102416.50;4995008;28;20035;-63
2024/02/01 05:12:54;;;;;;;6.35;3.60;;;;;;;15.82;52.85;102423.88;4994753;28;20626;-62
2024/02/01 05:15:19;;;;;;;8.02;4.15;;;;;;;15.76;52.92;102424.38;4994746;28;20084;-63
2024/02/01 05:17:44;;;;;;;5.78;4.07;;;;;;;15.77;52.99;102434.22;4995388;28;20042;-63
2024/02/01 05:20:11;;;;;;;5.53;3.65;;;;;;;15.77;52.33;102437.78;4996376;28;20038;-63
2024/02/01 05:22:40;;;;;;;9.63;4.35;;;;;;;15.81;52.05;102443.78;4986422;28;20034;-63
2024/02/01 05:25:19;;;;;;;5.97;3.83;;;;;;;15.84;51.88;102432.72;4984253;28;20041;-63
2024/02/01 05:27:52;;;;;;;7.15;3.50;;;;;;;15.90;53.14;102443.03;4995951;28;20034;-63
2024/02/01 05:30:19;;;;;;;8.98;4.45;;;;;;;15.92;52.92;102446.47;4994964;28;20049;-63
2024/02/01 05:32:54;;;;;;;5.60;3.72;;;;;;;15.94;52.64;102448.06;4995840;28;20034;-64
2024/02/01 05:35:25;;;;;;;6.45;3.95;;;;;;;15.98;52.46;102448.69;4995680;28;20042;-62
2024/02/01 05:37:51;;;;;;;10.15;4.80;;;;;;;16.00;53.38;102452.13;4995353;28;20035;-63
2024/02/01 05:40:19;;;;;;;9.25;4.78;;;;;;;16.01;52.35;102446.59;4993240;28;20038;-62
2024/02/01 05:42:44;;;;;;;7.72;5.15;;;;;;;16.01;51.99;102461.94;4978463;28;20030;-63
2024/02/01 05:45:11;;;;;;;9.40;4.97;;;;;;;15.98;52.98;102460.38;4995403;28;20125;-62
2024/02/01 05:47:36;;;;;;;14.65;7.35;;;;;;;16.00;53.21;102465.63;4994038;28;20456;-62
2024/02/01 05:50:04;;;;;;;16.33;7.15;;;;;;;16.01;52.52;102468.22;4993883;28;20041;-62
2024/02/01 05:52:30;;;;;;;9.02;5.45;;;;;;;15.98;53.14;102464.91;4994422;28;20035;-62
2024/02/01 05:54:55;;;;;;;15.65;6.82;;;;;;;15.98;52.49;102473.00;4995185;28;20035;-62
2024/02/01 05:57:21;;;;;;;15.20;6.43;;;;;;;15.98;53.28;102489.22;4994412;28;20034;-63
2024/02/01 05:59:48;;;;;;;8.65;5.30;;;;;;;15.97;52.42;102487.53;5000772;28;20034;-62
2024/02/01 06:02:13;;;;;;;10.30;5.55;;;;;;;16.00;53.20;102495.34;4993835;28;20046;-62
2024/02/01 06:04:39;;;;;;;7.53;4.55;;;;;;;16.00;53.00;102487.25;4995053;28;20051;-62
2024/02/01 06:07:04;;;;;;;9.38;4.25;;;;;;;15.97;52.79;102492.94;4994988;28;20038;-62
2024/02/01 06:09:30;;;;;;;8.90;5.88;;;;;;;15.99;52.66;102490.97;4993981;28;20109;-62
2024/02/01 06:11:56;;;;;;;11.27;4.78;;;;;;;15.98;53.27;102508.16;5000749;28;20125;-62
2024/02/01 06:14:21;;;;;;;10.02;4.80;;;;;;;16.01;53.07;102518.72;4993866;28;20037;-62
2024/02/01 06:16:47;;;;;;;10.93;4.70;;;;;;;15.99;52.68;102526.97;4994577;28;20034;-62
2024/02/01 06:19:12;;;;;;;10.82;5.28;;;;;;;15.97;51.95;102536.19;4994571;28;20034;-62
2024/02/01 06:21:38;;;;;;;14.75;5.20;;;;;;;15.95;52.39;102535.41;5009885;28;20030;-62
2024/02/01 06:24:04;;;;;;;12.07;4.40;;;;;;;15.92;52.35;102532.97;4993466;28;20027;-61
2024/02/01 06:26:31;;;;;;;8.57;3.80;;;;;;;15.92;53.48;102530.25;4994610;28;20042;-61
2024/02/01 06:29:00;;;;;;;11.10;5.38;;;;;;;15.90;52.83;102534.94;4994512;28;20097;-62
2024/02/01 06:31:30;;;;;;;12.52;5.20;;;;;;;15.87;52.65;102532.47;4994402;28;20030;-62
2024/02/01 06:33:55;;;;;;;9.32;4.90;;;;;;;15.85;52.31;102539.84;5009553;28;20038;-62
2024/02/01 06:36:23;;;;;;;14.85;4.63;;;;;;;15.81;51.59;102550.03;4994404;28;20038;-61
2024/02/01 06:44:21;;;;;;;23.38;3.35;;;;;;;15.66;51.50;102570.16;4977713;28;20042;-62
2024/02/01 06:49:28;;;;;;;5.93;2.17;;;;;;;15.59;51.94;102574.31;4993068;28;20026;-61
2024/02/01 06:52:02;;;;;;;5.90;2.15;;;;;;;15.52;51.66;102590.09;5007499;28;20037;-62
2024/02/01 06:54:50;;;;;;;6.95;2.00;;;;;;;15.52;51.31;102595.50;4992859;28;20089;-61
2024/02/01 06:57:18;;;;;;;10.82;3.55;;;;;;;15.47;52.44;102613.91;4994111;28;20035;-61
2024/02/01 07:00:06;;;;;;;10.90;2.40;;;;;;;15.40;50.90;102607.25;5009550;28;20058;-61
2024/02/01 07:02:35;;;;;;;8.15;1.98;;;;;;;15.37;51.76;102612.88;4994152;28;20030;-61
2024/02/01 07:05:11;;;;;;;11.35;2.38;;;;;;;15.31;51.93;102621.44;4993972;28;20113;-60
2024/02/01 07:07:45;;;;;;;4.75;1.17;;;;;;;15.26;50.75;102631.72;4994043;28;20441;-62
2024/02/01 07:10:32;;;;;;;8.82;1.88;;;;;;;15.22;50.26;102637.44;4992844;28;20041;-61
2024/02/01 07:13:21;;;;;;;6.55;1.77;;;;;;;15.19;51.50;102652.03;5006134;28;20074;-61
2024/02/01 07:15:48;;;;;;;8.15;1.27;;;;;;;15.09;51.26;102661.81;4993747;28;20038;-62
2024/02/01 07:18:19;;;;;;;11.85;1.58;;;;;;;15.06;50.88;102656.63;4993525;28;20039;-61
2024/02/01 07:20:51;;;;;;;19.92;2.42;;;;;;;15.05;50.34;102666.56;5008044;28;20465;-61
2024/02/01 07:25:48;;;;;;;10.55;1.65;;;;;;;14.99;50.64;102679.66;5008911;28;20564;-61
2024/02/01 07:58:38;;;;;;;6.28;1.40;;;;;;;14.69;49.16;102749.31;4992371;28;20577;-61
2024/02/01 08:01:14;;;;;;;13.55;2.33;;;;;;;14.70;49.43;102761.81;4991847;28;20046;-63
2024/02/01 08:04:11;;;;;;;10.43;2.10;;;;;;;14.73;49.82;102762.47;5007852;28;20046;-61
2024/02/01 08:09:20;;;;;;;10.77;1.50;;;;;;;14.71;48.79;102769.84;5006071;28;20090;-62
2024/02/01 08:11:45;;;;;;;7.15;1.55;;;;;;;14.70;49.32;102768.09;4991910;28;20038;-61
2024/02/01 08:14:13;;;;;;;12.23;1.52;;;;;;;14.78;49.60;102764.84;4991909;28;20442;-61
2024/02/01 08:16:39;;;;;;;8.32;1.20;;;;;;;14.82;49.01;102769.94;5010779;28;20085;-61
2024/02/01 08:19:06;;;;;;;6.60;1.30;;;;;;;14.88;48.67;102771.34;4997238;28;20039;-61
2024/02/01 08:21:36;;;;;;;10.55;1.33;;;;;;;14.91;49.13;102776.47;5012040;28;20407;-61
2024/02/01 08:24:04;;;;;;;7.85;1.13;;;;;;;14.94;48.85;102777.13;4997090;28;20030;-61
2024/02/01 08:26:37;;;;;;;7.82;1.42;;;;;;;14.95;49.31;102784.28;4996889;28;20030;-62
2024/02/01 08:29:02;;;;;;;;;;;;;;;14.99;48.90;102790.31;4996029;28;20030;-62
2024/02/01 08:31:36;;;;;;;4.78;1.10;;;;;;;14.99;48.43;102790.31;4979235;28;19914;-62
2024/02/01 08:34:02;;;;;;;5.85;2.25;;;;;;;15.00;48.57;102803.69;5010838;28;20035;-61
2024/02/01 08:36:27;;;;;;;13.45;1.83;;;;;;;15.02;48.24;102806.25;4995228;28;20453;-62
2024/02/01 08:38:52;;;;;;;10.73;2.03;;;;;;;15.06;47.90;102807.78;4995275;28;20041;-61
2024/02/01 08:41:18;;;;;;;11.57;1.35;;;;;;;15.08;48.74;102811.22;4995333;28;20041;-62
2024/02/01 08:43:43;;;;;;;7.78;1.45;;;;;;;15.14;47.90;102818.91;4996460;28;20137;-61
2024/02/01 08:46:08;;;;;;;13.30;1.38;;;;;;;15.22;48.46;102819.19;4996452;28;20454;-61
2024/02/01 08:48:34;;;;;;;11.15;1.55;;;;;;;15.28;48.61;102821.47;4995047;28;20035;-61
2024/02/01 08:50:59;;;;;;;5.55;1.77;;;;;;;15.37;47.73;102812.72;4995024;28;20033;-61
2024/02/01 08:53:26;;;;;;;18.08;2.42;;;;;;;15.48;48.32;102823.63;4996742;28;20089;-61
2024/02/01 08:55:54;;;;;;;9.05;1.65;;;;;;;15.59;48.47;102823.69;4996357;28;20078;-61
2024/02/01 08:58:20;;;;;;;13.40;1.30;;;;;;;15.73;47.18;102822.69;5011520;28;20035;-61
2024/02/01 09:00:46;;;;;;;11.40;2.50;;;;;;;15.93;48.08;102832.00;4996186;28;20076;-61
2024/02/01 09:03:21;;;;;;;15.68;2.20;;;;;;;16.07;46.88;102821.03;4978629;28;20405;-61
2024/02/01 09:05:50;;;;;;;5.63;1.63;;;;;;;16.28;47.46;102824.78;5010235;28;20169;-61
2024/02/01 09:08:19;;;;;;;12.63;1.98;;;;;;;16.47;46.75;102833.22;5011188;28;20045;-61
2024/02/01 09:10:57;;;;;;;9.30;2.78;;;;;;;16.68;46.68;102833.44;5010958;28;20035;-62
2024/02/01 09:13:23;;;;;;;5.97;1.80;;;;;;;16.91;46.77;102828.94;5009689;28;20074;-61
2024/02/01 09:15:48;;;;;;;9.00;1.70;;;;;;;17.11;46.74;102836.34;4995811;28;20034;-62
2024/02/01 09:18:15;;;;;;;7.88;1.95;;;;;;;17.32;45.71;102831.88;5010757;28;20070;-61
2024/02/01 09:20:41;;;;;;;11.27;1.75;;;;;;;17.55;45.96;102844.47;4995743;28;20517;-62
2024/02/01 09:23:07;;;;;;;8.68;2.08;;;;;;;17.77;45.38;102840.88;5010940;28;20036;-62
2024/02/01 09:25:33;;;;;;;5.97;1.70;;;;;;;17.96;44.86;102843.75;4994521;28;20035;-62
2024/02/01 09:28:00;;;;;;;9.25;2.15;;;;;;;18.15;45.00;102838.53;5009484;28;20113;-62
2024/02/01 09:30:27;;;;;;;9.85;2.30;;;;;;;18.30;44.67;102841.78;4994500;28;20041;-61
2024/02/01 09:32:53;;;;;;;16.42;2.05;;;;;;;18.50;44.61;102854.56;4995269;28;20521;-62
2024/02/01 09:35:21;;;;;;;12.60;1.88;;;;;;;18.72;44.03;102848.16;4994350;28;20026;-62
2024/02/01 09:37:53;;;;;;;15.45;2.28;;;;;;;18.89;44.06;102844.84;4978107;28;20030;-61
2024/02/01 09:40:23;;;;;;;7.87;1.70;;;;;;;19.11;44.25;102840.09;4995653;28;20027;-61
2024/02/01 09:42:49;;;;;;;18.08;3.03;;;;;;;19.48;43.45;102847.72;4994149;28;20497;-61
2024/02/01 09:45:28;;;;;;;12.55;1.83;;;;;;;19.77;42.82;102852.25;4994107;28;20474;-61
2024/02/01 09:47:54;;;;;;;8.93;1.90;;;;;;;20.12;42.87;102865.34;4994000;28;20038;-61
2024/02/01 09:50:22;;;;;;;10.57;2.22;;;;;;;20.44;42.24;102858.78;5013309;28;20033;-62
2024/02/01 09:52:51;;;;;;;12.27;2.25;;;;;;;20.66;42.26;102863.97;5014970;28;20029;-61
2024/02/01 09:55:19;;;;;;;11.77;1.50;;;;;;;20.88;42.17;102879.97;5013511;28;20030;-61
2024/02/01 09:57:52;;;;;;;12.05;2.08;;;;;;;21.17;41.30;102885.38;5013456;28;20038;-61
2024/02/01 10:00:27;;;;;;;9.30;2.80;;;;;;;21.45;41.40;102884.41;5013332;28;20033;-62
2024/02/01 10:02:53;;;;;;;11.23;2.35;;;;;;;21.72;40.51;102875.41;5014589;28;20037;-62
2024/02/01 10:05:19;;;;;;;10.80;2.78;;;;;;;21.74;40.79;102887.03;5013327;28;20072;-61
2024/02/01 10:07:45;;;;;;;11.23;1.88;;;;;;;21.94;40.35;102885.94;5013263;28;20500;-61
2024/02/01 10:10:14;;;;;;;9.88;2.15;;;;;;;22.29;39.29;102875.03;5014426;28;20042;-62
2024/02/01 10:12:41;;;;;;;8.55;2.20;;;;;;;22.20;39.94;102870.50;5013327;28;20113;-61
2024/02/01 10:15:11;;;;;;;6.03;1.95;;;;;;;22.50;39.75;102882.94;5013333;28;20034;-61
2024/02/01 10:17:45;;;;;;;10.73;1.98;;;;;;;22.44;40.00;102881.69;5012910;28;20061;-61
2024/02/01 10:20:33;;;;;;;12.48;2.45;;;;;;;22.67;39.69;102889.44;5013348;28;20057;-62
2024/02/01 10:23:07;;;;;;;7.53;2.55;;;;;;;22.77;39.23;102890.19;5012994;28;20435;-61
2024/02/01 10:25:34;;;;;;;16.05;2.30;;;;;;;22.69;39.50;102892.84;5014234;28;20447;-61
2024/02/01 10:28:07;;;;;;;7.82;2.13;;;;;;;22.87;38.20;102893.69;5013117;28;20497;-61
2024/02/01 10:30:34;;;;;;;10.85;1.88;;;;;;;23.17;38.42;102887.75;5014078;28;20041;-62
2024/02/01 10:33:03;;;;;;;22.90;2.30;;;;;;;23.33;38.26;102893.31;5012831;28;20041;-61
2024/02/01 10:35:31;;;;;;;8.90;1.95;;;;;;;23.57;38.23;102906.28;5012914;28;20037;-61
2024/02/01 10:37:57;;;;;;;10.13;1.90;;;;;;;23.67;37.99;102910.63;5012334;28;20126;-61
2024/02/01 10:40:26;;;;;;;8.50;2.08;;;;;;;23.80;36.90;102909.31;4996527;28;20058;-61
2024/02/01 10:42:54;;;;;;;8.82;2.33;;;;;;;23.94;37.44;102903.19;4996388;28;20049;-61
2024/02/01 10:45:21;;;;;;;16.20;2.50;;;;;;;24.08;37.30;102902.56;4996323;28;20105;-61
2024/02/01 10:47:49;;;;;;;14.43;2.78;;;;;;;24.17;36.46;102905.22;5012580;28;20061;-61
2024/02/01 10:50:15;;;;;;;8.63;1.92;;;;;;;24.12;36.74;102898.50;5012663;28;20092;-62
2024/02/01 10:52:43;;;;;;;13.25;2.47;;;;;;;24.08;36.65;102902.56;5012406;28;20029;-61
2024/02/01 10:55:09;;;;;;;9.75;2.15;;;;;;;24.04;36.64;102906.66;4996529;28;20473;-61
2024/02/01 10:57:41;;;;;;;9.45;1.50;;;;;;;23.50;36.99;102903.38;5012621;28;20026;-62
2024/02/01 11:00:16;;;;;;;7.30;1.58;;;;;;;23.59;36.38;102893.34;5008735;28;20021;-61
2024/02/01 11:02:47;;;;;;;9.63;1.98;;;;;;;23.71;36.53;102892.84;5012444;28;20030;-61
2024/02/01 11:05:12;;;;;;;9.05;1.52;;;;;;;23.75;36.35;102894.25;5013678;28;20065;-61
2024/02/01 11:07:37;;;;;;;5.85;2.40;;;;;;;23.88;36.18;102890.19;5012342;28;20485;-61
2024/02/01 11:10:12;;;;;;;11.32;2.10;;;;;;;23.91;35.62;102890.72;5012379;28;20581;-61
2024/02/01 11:12:38;;;;;;;13.25;3.05;;;;;;;23.48;36.19;102890.88;5013630;28;20119;-61
2024/02/01 11:15:05;;;;;;;9.27;1.70;;;;;;;23.68;35.96;102876.75;5012339;28;20026;-61
2024/02/01 11:17:31;;;;;;;5.85;1.42;;;;;;;23.65;36.21;102882.56;5011942;28;20068;-61
2024/02/01 11:19:56;;;;;;;8.80;2.05;;;;;;;23.60;35.98;102874.00;5013679;28;20057;-62
2024/02/01 11:22:22;;;;;;;14.27;2.55;;;;;;;23.64;35.87;102886.34;5012234;28;20493;-61
2024/02/01 11:24:47;;;;;;;12.10;2.20;;;;;;;23.73;35.82;102889.94;5013504;28;20041;-60
2024/02/01 11:27:24;;;;;;;11.13;1.85;;;;;;;23.98;35.54;102885.44;5012261;28;20052;-61
2024/02/01 11:29:55;;;;;;;5.45;1.30;;;;;;;24.06;35.28;102882.72;5013601;28;20057;-61
2024/02/01 11:32:21;;;;;;;7.03;1.33;;;;;;;24.13;35.19;102881.03;4996222;28;20444;-61
2024/02/01 11:34:52;;;;;;;8.63;2.25;;;;;;;24.13;35.00;102870.09;5012140;28;20037;-61
2024/02/01 11:37:22;;;;;;;7.70;2.33;;;;;;;24.22;34.85;102885.50;5011934;28;20049;-61
2024/02/01 11:39:49;;;;;;;4.57;1.85;;;;;;;24.27;34.92;102883.13;4995687;28;20413;-61
2024/02/01 11:42:15;;;;;;;7.00;2.00;;;;;;;24.38;34.89;102882.78;4995925;28;20412;-61
2024/02/01 11:44:41;;;;;;;8.57;1.42;;;;;;;24.44;34.44;102878.53;4996084;28;20459;-61
2024/02/01 11:47:07;;;;;;;9.25;1.80;;;;;;;24.55;34.05;102870.81;5013260;28;20199;-61
2024/02/01 11:49:36;;;;;;;5.53;1.73;;;;;;;24.51;34.51;102879.56;5012150;28;20121;-62
2024/02/01 11:52:31;;;;;;;18.27;2.13;;;;;;;24.50;33.79;102881.44;4999777;28;20038;-61
2024/02/01 11:54:56;;;;;;;12.07;2.20;;;;;;;24.49;34.67;102881.59;5016934;28;20125;-61
2024/02/01 11:57:25;;;;;;;11.82;2.33;;;;;;;24.54;34.22;102879.22;5016973;28;20112;-62
2024/02/01 11:59:51;;;;;;;7.68;2.50;;;;;;;24.57;33.92;102884.34;5015797;28;20034;-62
2024/02/01 12:02:17;;;;;;;11.90;2.20;;;;;;;24.57;33.66;102890.69;5015755;28;20104;-62
2024/02/01 12:04:45;;;;;;;9.75;2.05;;;;;;;24.64;33.79;102890.88;5017095;28;20445;-61
2024/02/01 12:07:14;;;;;;;15.20;1.70;;;;;;;24.63;33.85;102884.53;5016970;28;20093;-61
2024/02/01 12:09:40;;;;;;;10.10;1.60;;;;;;;24.60;33.64;102889.47;5015681;28;20057;-61